sensor_id;sensor_type;location;lat;lon;timestamp;P1;durP1;ratioP1;P2;durP2;ratioP2
10641;SDS011;5369;49.586;8.646;2023-03-14T00:00:38;2.73;;;1.30;;
10641;SDS011;5369;49.586;8.646;2023-03-14T00:03:04;2.37;;;1.40;;
10641;SDS011;5369;49.586;8.646;2023-03-14T00:05:30;2.97;;;1.80;;
10641;SDS011;5369;49.586;8.646;2023-03-14T00:07:57;2.30;;;1.30;;
10641;SDS011;5369;49.586;8.646;2023-03-14T00:10:23;2.23;;;1.40;;
10641;SDS011;5369;49.586;8.646;2023-03-14T00:12:49;2.60;;;1.43;;
10641;SDS011;5369;49.586;8.646;2023-03-14T00:15:15;1.43;;;1.10;;
10641;SDS011;5369;49.586;8.646;2023-03-14T00:17:42;1.90;;;1.40;;
10641;SDS011;5369;49.586;8.646;2023-03-14T00:20:09;3.57;;;1.80;;
10641;SDS011;5369;49.586;8.646;2023-03-14T00:22:39;7.30;;;3.30;;
10641;SDS011;5369;49.586;8.646;2023-03-14T00:25:06;4.57;;;2.33;;
10641;SDS011;5369;49.586;8.646;2023-03-14T00:27:32;3.77;;;1.57;;
10641;SDS011;5369;49.586;8.646;2023-03-14T00:29:59;1.80;;;1.40;;
10641;SDS011;5369;49.586;8.646;2023-03-14T00:32:25;3.20;;;1.30;;
10641;SDS011;5369;49.586;8.646;2023-03-14T00:34:51;2.37;;;1.20;;
10641;SDS011;5369;49.586;8.646;2023-03-14T00:37:17;2.37;;;1.27;;
10641;SDS011;5369;49.586;8.646;2023-03-14T00:39:44;1.90;;;1.40;;
10641;SDS011;5369;49.586;8.646;2023-03-14T00:42:10;2.33;;;1.10;;
10641;SDS011;5369;49.586;8.646;2023-03-14T00:44:36;1.30;;;1.10;;
10641;SDS011;5369;49.586;8.646;2023-03-14T00:47:06;2.20;;;1.43;;
10641;SDS011;5369;49.586;8.646;2023-03-14T00:49:32;1.57;;;1.07;;
10641;SDS011;5369;49.586;8.646;2023-03-14T00:51:58;1.03;;;0.93;;
10641;SDS011;5369;49.586;8.646;2023-03-14T00:54:24;1.77;;;1.10;;
10641;SDS011;5369;49.586;8.646;2023-03-14T00:56:51;3.13;;;1.10;;
10641;SDS011;5369;49.586;8.646;2023-03-14T00:59:18;2.07;;;1.27;;
10641;SDS011;5369;49.586;8.646;2023-03-14T01:01:44;1.40;;;1.20;;
10641;SDS011;5369;49.586;8.646;2023-03-14T01:04:11;8.93;;;3.50;;
10641;SDS011;5369;49.586;8.646;2023-03-14T01:06:38;5.67;;;1.40;;
10641;SDS011;5369;49.586;8.646;2023-03-14T01:09:04;3.27;;;1.40;;
10641;SDS011;5369;49.586;8.646;2023-03-14T01:11:31;4.63;;;1.53;;
10641;SDS011;5369;49.586;8.646;2023-03-14T01:13:58;2.27;;;1.23;;
10641;SDS011;5369;49.586;8.646;2023-03-14T01:16:28;2.30;;;1.10;;
10641;SDS011;5369;49.586;8.646;2023-03-14T01:18:55;2.43;;;1.30;;
10641;SDS011;5369;49.586;8.646;2023-03-14T01:21:22;3.63;;;1.40;;
10641;SDS011;5369;49.586;8.646;2023-03-14T01:23:49;1.73;;;1.10;;
10641;SDS011;5369;49.586;8.646;2023-03-14T01:26:16;1.50;;;1.10;;
10641;SDS011;5369;49.586;8.646;2023-03-14T01:28:44;2.30;;;1.27;;
10641;SDS011;5369;49.586;8.646;2023-03-14T01:31:11;3.60;;;1.30;;
10641;SDS011;5369;49.586;8.646;2023-03-14T01:33:38;2.37;;;1.60;;
10641;SDS011;5369;49.586;8.646;2023-03-14T01:36:05;3.33;;;1.40;;
10641;SDS011;5369;49.586;8.646;2023-03-14T01:38:32;4.73;;;1.73;;
10641;SDS011;5369;49.586;8.646;2023-03-14T01:40:59;4.23;;;1.30;;
10641;SDS011;5369;49.586;8.646;2023-03-14T01:43:26;2.27;;;1.20;;
10641;SDS011;5369;49.586;8.646;2023-03-14T01:48:36;5.47;;;2.97;;
10641;SDS011;5369;49.586;8.646;2023-03-14T01:51:09;3.67;;;1.70;;
10641;SDS011;5369;49.586;8.646;2023-03-14T01:53:37;2.87;;;1.90;;
10641;SDS011;5369;49.586;8.646;2023-03-14T01:56:04;2.37;;;1.50;;
10641;SDS011;5369;49.586;8.646;2023-03-14T01:58:30;2.40;;;1.50;;
10641;SDS011;5369;49.586;8.646;2023-03-14T02:00:59;3.63;;;1.20;;
10641;SDS011;5369;49.586;8.646;2023-03-14T02:03:27;2.20;;;1.30;;
10641;SDS011;5369;49.586;8.646;2023-03-14T02:05:55;2.87;;;2.20;;
10641;SDS011;5369;49.586;8.646;2023-03-14T02:08:22;4.87;;;1.80;;
10641;SDS011;5369;49.586;8.646;2023-03-14T02:10:56;1.77;;;1.17;;
10641;SDS011;5369;49.586;8.646;2023-03-14T02:13:42;1.60;;;1.10;;
10641;SDS011;5369;49.586;8.646;2023-03-14T02:16:27;1.80;;;1.07;;
10641;SDS011;5369;49.586;8.646;2023-03-14T02:19:03;3.07;;;1.43;;
10641;SDS011;5369;49.586;8.646;2023-03-14T02:22:05;1.73;;;1.20;;
10641;SDS011;5369;49.586;8.646;2023-03-14T02:24:43;2.20;;;1.10;;
10641;SDS011;5369;49.586;8.646;2023-03-14T02:27:14;3.97;;;1.20;;
10641;SDS011;5369;49.586;8.646;2023-03-14T02:29:52;2.90;;;1.23;;
10641;SDS011;5369;49.586;8.646;2023-03-14T02:32:20;2.63;;;1.40;;
10641;SDS011;5369;49.586;8.646;2023-03-14T02:34:48;1.33;;;1.10;;
10641;SDS011;5369;49.586;8.646;2023-03-14T02:37:15;2.27;;;1.03;;
10641;SDS011;5369;49.586;8.646;2023-03-14T02:39:43;2.17;;;1.37;;
10641;SDS011;5369;49.586;8.646;2023-03-14T02:42:12;4.17;;;1.50;;
10641;SDS011;5369;49.586;8.646;2023-03-14T02:44:55;3.40;;;1.10;;
10641;SDS011;5369;49.586;8.646;2023-03-14T02:47:29;2.03;;;1.10;;
10641;SDS011;5369;49.586;8.646;2023-03-14T02:50:01;4.77;;;1.63;;
10641;SDS011;5369;49.586;8.646;2023-03-14T02:52:29;1.70;;;1.30;;
10641;SDS011;5369;49.586;8.646;2023-03-14T02:54:55;2.93;;;1.10;;
10641;SDS011;5369;49.586;8.646;2023-03-14T02:57:23;6.00;;;1.80;;
10641;SDS011;5369;49.586;8.646;2023-03-14T02:59:49;4.07;;;1.40;;
10641;SDS011;5369;49.586;8.646;2023-03-14T03:02:18;3.43;;;1.40;;
10641;SDS011;5369;49.586;8.646;2023-03-14T03:04:44;3.67;;;1.47;;
10641;SDS011;5369;49.586;8.646;2023-03-14T03:07:10;2.97;;;1.30;;
10641;SDS011;5369;49.586;8.646;2023-03-14T03:09:37;2.57;;;1.30;;
10641;SDS011;5369;49.586;8.646;2023-03-14T03:12:04;3.13;;;1.40;;
10641;SDS011;5369;49.586;8.646;2023-03-14T03:14:31;3.13;;;1.27;;
10641;SDS011;5369;49.586;8.646;2023-03-14T03:17:00;4.37;;;1.50;;
10641;SDS011;5369;49.586;8.646;2023-03-14T03:19:27;2.93;;;1.70;;
10641;SDS011;5369;49.586;8.646;2023-03-14T03:21:53;3.70;;;1.50;;
10641;SDS011;5369;49.586;8.646;2023-03-14T03:24:19;3.63;;;1.27;;
10641;SDS011;5369;49.586;8.646;2023-03-14T03:26:45;3.53;;;1.30;;
10641;SDS011;5369;49.586;8.646;2023-03-14T03:29:11;7.80;;;3.10;;
10641;SDS011;5369;49.586;8.646;2023-03-14T03:31:38;3.20;;;1.60;;
10641;SDS011;5369;49.586;8.646;2023-03-14T03:34:04;2.57;;;1.27;;
10641;SDS011;5369;49.586;8.646;2023-03-14T03:36:30;3.30;;;1.40;;
10641;SDS011;5369;49.586;8.646;2023-03-14T03:38:58;2.90;;;1.50;;
10641;SDS011;5369;49.586;8.646;2023-03-14T03:41:25;5.37;;;2.10;;
10641;SDS011;5369;49.586;8.646;2023-03-14T03:43:51;2.97;;;1.40;;
10641;SDS011;5369;49.586;8.646;2023-03-14T03:46:19;3.23;;;1.30;;
10641;SDS011;5369;49.586;8.646;2023-03-14T03:48:45;4.67;;;1.37;;
10641;SDS011;5369;49.586;8.646;2023-03-14T03:51:15;1.97;;;1.10;;
10641;SDS011;5369;49.586;8.646;2023-03-14T03:53:42;3.03;;;1.50;;
10641;SDS011;5369;49.586;8.646;2023-03-14T03:56:11;3.33;;;1.20;;
10641;SDS011;5369;49.586;8.646;2023-03-14T03:58:38;2.77;;;1.40;;
10641;SDS011;5369;49.586;8.646;2023-03-14T04:01:05;2.77;;;1.20;;
10641;SDS011;5369;49.586;8.646;2023-03-14T04:03:32;4.50;;;1.60;;
10641;SDS011;5369;49.586;8.646;2023-03-14T04:06:05;3.23;;;1.40;;
10641;SDS011;5369;49.586;8.646;2023-03-14T04:08:34;2.60;;;1.30;;
10641;SDS011;5369;49.586;8.646;2023-03-14T04:11:00;5.23;;;1.33;;
10641;SDS011;5369;49.586;8.646;2023-03-14T04:13:44;3.50;;;1.50;;
10641;SDS011;5369;49.586;8.646;2023-03-14T04:16:15;2.63;;;1.30;;
10641;SDS011;5369;49.586;8.646;2023-03-14T04:18:42;4.83;;;1.63;;
10641;SDS011;5369;49.586;8.646;2023-03-14T04:21:09;3.37;;;1.40;;
10641;SDS011;5369;49.586;8.646;2023-03-14T04:23:43;4.80;;;1.80;;
10641;SDS011;5369;49.586;8.646;2023-03-14T04:26:09;4.03;;;2.47;;
10641;SDS011;5369;49.586;8.646;2023-03-14T04:28:36;2.80;;;1.50;;
10641;SDS011;5369;49.586;8.646;2023-03-14T04:31:11;4.47;;;1.33;;
10641;SDS011;5369;49.586;8.646;2023-03-14T04:33:37;3.07;;;1.70;;
10641;SDS011;5369;49.586;8.646;2023-03-14T04:36:05;3.03;;;1.47;;
10641;SDS011;5369;49.586;8.646;2023-03-14T04:38:31;3.23;;;1.50;;
10641;SDS011;5369;49.586;8.646;2023-03-14T04:40:58;2.97;;;1.70;;
10641;SDS011;5369;49.586;8.646;2023-03-14T04:43:29;2.00;;;1.30;;
10641;SDS011;5369;49.586;8.646;2023-03-14T04:46:06;4.03;;;1.60;;
10641;SDS011;5369;49.586;8.646;2023-03-14T04:48:33;3.25;;;1.38;;
10641;SDS011;5369;49.586;8.646;2023-03-14T04:51:00;1.53;;;1.20;;
10641;SDS011;5369;49.586;8.646;2023-03-14T04:53:29;3.10;;;1.30;;
10641;SDS011;5369;49.586;8.646;2023-03-14T04:55:57;4.03;;;2.03;;
10641;SDS011;5369;49.586;8.646;2023-03-14T04:58:29;5.30;;;1.30;;
10641;SDS011;5369;49.586;8.646;2023-03-14T05:01:02;2.40;;;1.40;;
10641;SDS011;5369;49.586;8.646;2023-03-14T05:03:47;3.10;;;1.37;;
10641;SDS011;5369;49.586;8.646;2023-03-14T05:06:20;1.77;;;1.13;;
10641;SDS011;5369;49.586;8.646;2023-03-14T05:09:05;3.85;;;1.70;;
10641;SDS011;5369;49.586;8.646;2023-03-14T05:11:41;3.17;;;1.30;;
10641;SDS011;5369;49.586;8.646;2023-03-14T05:14:26;3.03;;;1.23;;
10641;SDS011;5369;49.586;8.646;2023-03-14T05:17:11;2.67;;;1.30;;
10641;SDS011;5369;49.586;8.646;2023-03-14T05:19:59;3.03;;;1.80;;
10641;SDS011;5369;49.586;8.646;2023-03-14T05:22:49;3.37;;;1.40;;
10641;SDS011;5369;49.586;8.646;2023-03-14T05:25:37;4.27;;;1.50;;
10641;SDS011;5369;49.586;8.646;2023-03-14T05:28:18;2.40;;;1.30;;
10641;SDS011;5369;49.586;8.646;2023-03-14T05:31:05;3.80;;;1.40;;
10641;SDS011;5369;49.586;8.646;2023-03-14T05:33:52;2.90;;;1.40;;
10641;SDS011;5369;49.586;8.646;2023-03-14T05:36:44;2.80;;;1.20;;
10641;SDS011;5369;49.586;8.646;2023-03-14T05:39:22;2.77;;;1.20;;
10641;SDS011;5369;49.586;8.646;2023-03-14T05:42:08;5.43;;;1.20;;
10641;SDS011;5369;49.586;8.646;2023-03-14T05:44:50;3.67;;;1.40;;
10641;SDS011;5369;49.586;8.646;2023-03-14T05:47:43;3.03;;;1.00;;
10641;SDS011;5369;49.586;8.646;2023-03-14T05:50:32;4.10;;;1.13;;
10641;SDS011;5369;49.586;8.646;2023-03-14T05:53:18;2.80;;;1.20;;
10641;SDS011;5369;49.586;8.646;2023-03-14T05:55:53;4.10;;;1.23;;
10641;SDS011;5369;49.586;8.646;2023-03-14T05:58:33;3.57;;;1.00;;
10641;SDS011;5369;49.586;8.646;2023-03-14T06:01:09;3.93;;;1.10;;
10641;SDS011;5369;49.586;8.646;2023-03-14T06:03:55;3.03;;;1.10;;
10641;SDS011;5369;49.586;8.646;2023-03-14T06:06:21;2.80;;;1.20;;
10641;SDS011;5369;49.586;8.646;2023-03-14T06:08:47;3.23;;;1.23;;
10641;SDS011;5369;49.586;8.646;2023-03-14T06:11:13;3.93;;;1.30;;
10641;SDS011;5369;49.586;8.646;2023-03-14T06:13:40;3.77;;;1.50;;
10641;SDS011;5369;49.586;8.646;2023-03-14T06:16:07;4.10;;;1.70;;
10641;SDS011;5369;49.586;8.646;2023-03-14T06:18:34;3.43;;;1.40;;
10641;SDS011;5369;49.586;8.646;2023-03-14T06:21:01;2.57;;;1.37;;
10641;SDS011;5369;49.586;8.646;2023-03-14T06:23:27;2.13;;;1.20;;
10641;SDS011;5369;49.586;8.646;2023-03-14T06:25:57;3.67;;;1.20;;
10641;SDS011;5369;49.586;8.646;2023-03-14T06:28:24;3.50;;;1.40;;
10641;SDS011;5369;49.586;8.646;2023-03-14T06:30:50;3.27;;;1.30;;
10641;SDS011;5369;49.586;8.646;2023-03-14T06:33:16;4.17;;;1.10;;
10641;SDS011;5369;49.586;8.646;2023-03-14T06:35:42;2.57;;;1.33;;
10641;SDS011;5369;49.586;8.646;2023-03-14T06:38:08;2.00;;;1.10;;
10641;SDS011;5369;49.586;8.646;2023-03-14T06:40:38;2.27;;;1.13;;
10641;SDS011;5369;49.586;8.646;2023-03-14T06:43:08;2.43;;;1.20;;
10641;SDS011;5369;49.586;8.646;2023-03-14T06:45:37;3.40;;;1.37;;
10641;SDS011;5369;49.586;8.646;2023-03-14T06:48:03;1.70;;;1.00;;
10641;SDS011;5369;49.586;8.646;2023-03-14T06:50:36;3.47;;;1.20;;
10641;SDS011;5369;49.586;8.646;2023-03-14T06:53:03;4.90;;;1.10;;
10641;SDS011;5369;49.586;8.646;2023-03-14T06:55:30;2.57;;;0.93;;
10641;SDS011;5369;49.586;8.646;2023-03-14T06:57:56;3.53;;;1.10;;
10641;SDS011;5369;49.586;8.646;2023-03-14T07:00:23;4.63;;;1.10;;
10641;SDS011;5369;49.586;8.646;2023-03-14T07:02:53;3.87;;;1.27;;
10641;SDS011;5369;49.586;8.646;2023-03-14T07:05:25;2.70;;;1.33;;
10641;SDS011;5369;49.586;8.646;2023-03-14T07:07:52;3.03;;;1.20;;
10641;SDS011;5369;49.586;8.646;2023-03-14T07:10:18;2.10;;;1.10;;
10641;SDS011;5369;49.586;8.646;2023-03-14T07:12:44;2.80;;;1.10;;
10641;SDS011;5369;49.586;8.646;2023-03-14T07:15:10;3.17;;;1.10;;
10641;SDS011;5369;49.586;8.646;2023-03-14T07:17:37;2.80;;;1.10;;
10641;SDS011;5369;49.586;8.646;2023-03-14T07:20:04;4.00;;;1.13;;
10641;SDS011;5369;49.586;8.646;2023-03-14T07:22:30;4.00;;;1.30;;
10641;SDS011;5369;49.586;8.646;2023-03-14T07:24:57;5.40;;;1.30;;
10641;SDS011;5369;49.586;8.646;2023-03-14T07:27:24;3.03;;;1.20;;
10641;SDS011;5369;49.586;8.646;2023-03-14T07:29:50;3.37;;;1.07;;
10641;SDS011;5369;49.586;8.646;2023-03-14T07:32:17;4.10;;;1.10;;
10641;SDS011;5369;49.586;8.646;2023-03-14T07:34:44;3.20;;;1.00;;
10641;SDS011;5369;49.586;8.646;2023-03-14T07:37:10;2.60;;;1.20;;
10641;SDS011;5369;49.586;8.646;2023-03-14T07:39:36;2.83;;;1.00;;
10641;SDS011;5369;49.586;8.646;2023-03-14T07:42:07;2.83;;;1.30;;
10641;SDS011;5369;49.586;8.646;2023-03-14T07:44:53;2.53;;;1.17;;
10641;SDS011;5369;49.586;8.646;2023-03-14T07:47:19;4.37;;;1.43;;
10641;SDS011;5369;49.586;8.646;2023-03-14T07:49:45;2.77;;;1.30;;
10641;SDS011;5369;49.586;8.646;2023-03-14T07:52:11;3.33;;;1.10;;
10641;SDS011;5369;49.586;8.646;2023-03-14T07:54:37;3.83;;;1.30;;
10641;SDS011;5369;49.586;8.646;2023-03-14T07:57:03;4.20;;;1.20;;
10641;SDS011;5369;49.586;8.646;2023-03-14T07:59:29;3.47;;;1.20;;
10641;SDS011;5369;49.586;8.646;2023-03-14T08:01:56;2.13;;;1.00;;
10641;SDS011;5369;49.586;8.646;2023-03-14T08:04:22;4.93;;;1.80;;
10641;SDS011;5369;49.586;8.646;2023-03-14T08:06:48;1.83;;;1.00;;
10641;SDS011;5369;49.586;8.646;2023-03-14T08:09:14;3.37;;;1.23;;
10641;SDS011;5369;49.586;8.646;2023-03-14T08:11:40;3.23;;;1.00;;
10641;SDS011;5369;49.586;8.646;2023-03-14T08:14:07;3.33;;;1.00;;
10641;SDS011;5369;49.586;8.646;2023-03-14T08:16:33;2.53;;;0.90;;
10641;SDS011;5369;49.586;8.646;2023-03-14T08:18:59;3.63;;;1.20;;
10641;SDS011;5369;49.586;8.646;2023-03-14T08:21:25;3.40;;;1.20;;
10641;SDS011;5369;49.586;8.646;2023-03-14T08:23:51;2.30;;;1.00;;
10641;SDS011;5369;49.586;8.646;2023-03-14T08:26:17;6.47;;;1.43;;
10641;SDS011;5369;49.586;8.646;2023-03-14T08:28:43;4.20;;;1.20;;
10641;SDS011;5369;49.586;8.646;2023-03-14T08:31:09;4.30;;;1.00;;
10641;SDS011;5369;49.586;8.646;2023-03-14T08:33:35;7.80;;;1.50;;
10641;SDS011;5369;49.586;8.646;2023-03-14T08:36:02;2.93;;;1.07;;
10641;SDS011;5369;49.586;8.646;2023-03-14T08:38:28;2.13;;;1.00;;
10641;SDS011;5369;49.586;8.646;2023-03-14T08:40:55;2.37;;;0.90;;
10641;SDS011;5369;49.586;8.646;2023-03-14T08:43:22;1.70;;;0.90;;
10641;SDS011;5369;49.586;8.646;2023-03-14T08:45:48;2.30;;;0.90;;
10641;SDS011;5369;49.586;8.646;2023-03-14T08:48:14;1.80;;;1.00;;
10641;SDS011;5369;49.586;8.646;2023-03-14T08:50:40;1.93;;;1.10;;
10641;SDS011;5369;49.586;8.646;2023-03-14T08:53:06;1.80;;;1.00;;
10641;SDS011;5369;49.586;8.646;2023-03-14T08:55:32;2.00;;;1.00;;
10641;SDS011;5369;49.586;8.646;2023-03-14T08:57:58;2.27;;;1.00;;
10641;SDS011;5369;49.586;8.646;2023-03-14T09:00:25;3.87;;;1.10;;
10641;SDS011;5369;49.586;8.646;2023-03-14T09:02:51;2.97;;;1.00;;
10641;SDS011;5369;49.586;8.646;2023-03-14T09:05:17;2.20;;;0.80;;
10641;SDS011;5369;49.586;8.646;2023-03-14T09:07:43;1.73;;;0.80;;
10641;SDS011;5369;49.586;8.646;2023-03-14T09:10:10;1.87;;;0.90;;
10641;SDS011;5369;49.586;8.646;2023-03-14T09:12:36;2.03;;;0.80;;
10641;SDS011;5369;49.586;8.646;2023-03-14T09:15:02;2.37;;;0.80;;
10641;SDS011;5369;49.586;8.646;2023-03-14T09:17:29;2.73;;;1.00;;
10641;SDS011;5369;49.586;8.646;2023-03-14T09:19:55;1.90;;;0.90;;
10641;SDS011;5369;49.586;8.646;2023-03-14T09:22:21;1.87;;;0.70;;
10641;SDS011;5369;49.586;8.646;2023-03-14T09:24:47;1.37;;;0.90;;
10641;SDS011;5369;49.586;8.646;2023-03-14T09:27:13;2.63;;;0.70;;
10641;SDS011;5369;49.586;8.646;2023-03-14T09:29:40;5.53;;;0.80;;
10641;SDS011;5369;49.586;8.646;2023-03-14T09:32:06;1.93;;;0.90;;
10641;SDS011;5369;49.586;8.646;2023-03-14T09:34:32;3.40;;;1.20;;
10641;SDS011;5369;49.586;8.646;2023-03-14T09:36:58;1.90;;;0.97;;
10641;SDS011;5369;49.586;8.646;2023-03-14T09:39:25;2.73;;;0.90;;
10641;SDS011;5369;49.586;8.646;2023-03-14T09:41:52;2.73;;;0.90;;
10641;SDS011;5369;49.586;8.646;2023-03-14T09:44:27;4.37;;;0.90;;
10641;SDS011;5369;49.586;8.646;2023-03-14T09:46:55;2.50;;;0.70;;
10641;SDS011;5369;49.586;8.646;2023-03-14T09:49:42;1.13;;;0.70;;
10641;SDS011;5369;49.586;8.646;2023-03-14T09:52:13;2.13;;;0.90;;
10641;SDS011;5369;49.586;8.646;2023-03-14T09:57:19;1.20;;;0.53;;
10641;SDS011;5369;49.586;8.646;2023-03-14T09:59:47;1.20;;;0.73;;
10641;SDS011;5369;49.586;8.646;2023-03-14T10:02:34;2.13;;;0.93;;
10641;SDS011;5369;49.586;8.646;2023-03-14T10:05:01;2.17;;;0.63;;
10641;SDS011;5369;49.586;8.646;2023-03-14T10:07:28;1.40;;;0.73;;
10641;SDS011;5369;49.586;8.646;2023-03-14T10:09:55;1.50;;;0.77;;
10641;SDS011;5369;49.586;8.646;2023-03-14T10:12:30;2.53;;;0.80;;
10641;SDS011;5369;49.586;8.646;2023-03-14T10:14:57;1.17;;;0.60;;
10641;SDS011;5369;49.586;8.646;2023-03-14T10:17:28;1.53;;;0.80;;
10641;SDS011;5369;49.586;8.646;2023-03-14T10:19:56;1.10;;;0.70;;
10641;SDS011;5369;49.586;8.646;2023-03-14T10:22:24;0.80;;;0.80;;
10641;SDS011;5369;49.586;8.646;2023-03-14T10:24:54;1.33;;;0.60;;
10641;SDS011;5369;49.586;8.646;2023-03-14T10:27:23;1.60;;;0.60;;
10641;SDS011;5369;49.586;8.646;2023-03-14T10:30:00;0.63;;;0.60;;
10641;SDS011;5369;49.586;8.646;2023-03-14T10:32:28;2.33;;;0.80;;
10641;SDS011;5369;49.586;8.646;2023-03-14T10:35:03;1.00;;;0.73;;
10641;SDS011;5369;49.586;8.646;2023-03-14T10:37:30;1.47;;;0.67;;
10641;SDS011;5369;49.586;8.646;2023-03-14T10:40:00;1.07;;;0.57;;
10641;SDS011;5369;49.586;8.646;2023-03-14T10:42:34;0.67;;;0.67;;
10641;SDS011;5369;49.586;8.646;2023-03-14T10:45:05;1.90;;;0.80;;
10641;SDS011;5369;49.586;8.646;2023-03-14T10:47:35;0.97;;;0.70;;
10641;SDS011;5369;49.586;8.646;2023-03-14T10:50:19;1.20;;;0.70;;
10641;SDS011;5369;49.586;8.646;2023-03-14T10:52:48;1.37;;;0.90;;
10641;SDS011;5369;49.586;8.646;2023-03-14T10:55:16;2.27;;;0.80;;
10641;SDS011;5369;49.586;8.646;2023-03-14T10:57:42;2.80;;;1.00;;
10641;SDS011;5369;49.586;8.646;2023-03-14T11:00:14;1.33;;;0.80;;
10641;SDS011;5369;49.586;8.646;2023-03-14T11:02:46;0.93;;;0.83;;
10641;SDS011;5369;49.586;8.646;2023-03-14T11:07:40;1.87;;;0.90;;
10641;SDS011;5369;49.586;8.646;2023-03-14T11:12:56;2.50;;;1.30;;
10641;SDS011;5369;49.586;8.646;2023-03-14T11:15:30;2.10;;;1.20;;
10641;SDS011;5369;49.586;8.646;2023-03-14T11:18:16;1.23;;;1.10;;
10641;SDS011;5369;49.586;8.646;2023-03-14T11:20:54;3.00;;;1.37;;
10641;SDS011;5369;49.586;8.646;2023-03-14T11:26:00;2.57;;;1.73;;
10641;SDS011;5369;49.586;8.646;2023-03-14T11:30:54;3.50;;;1.70;;
10641;SDS011;5369;49.586;8.646;2023-03-14T11:33:25;2.30;;;1.23;;
10641;SDS011;5369;49.586;8.646;2023-03-14T11:36:11;2.30;;;1.10;;
10641;SDS011;5369;49.586;8.646;2023-03-14T11:38:50;2.67;;;1.10;;
10641;SDS011;5369;49.586;8.646;2023-03-14T11:41:19;2.03;;;1.40;;
10641;SDS011;5369;49.586;8.646;2023-03-14T11:43:53;2.03;;;0.90;;
10641;SDS011;5369;49.586;8.646;2023-03-14T11:51:40;1.00;;;0.90;;
10641;SDS011;5369;49.586;8.646;2023-03-14T11:54:31;1.40;;;0.90;;
10641;SDS011;5369;49.586;8.646;2023-03-14T11:57:01;3.30;;;0.90;;
10641;SDS011;5369;49.586;8.646;2023-03-14T11:59:28;1.00;;;0.80;;
10641;SDS011;5369;49.586;8.646;2023-03-14T12:04:28;1.47;;;1.10;;
10641;SDS011;5369;49.586;8.646;2023-03-14T12:06:57;3.63;;;1.23;;
10641;SDS011;5369;49.586;8.646;2023-03-14T12:09:28;1.17;;;1.00;;
10641;SDS011;5369;49.586;8.646;2023-03-14T12:12:02;1.30;;;1.20;;
10641;SDS011;5369;49.586;8.646;2023-03-14T12:14:30;2.50;;;1.30;;
10641;SDS011;5369;49.586;8.646;2023-03-14T12:17:17;1.20;;;1.10;;
10641;SDS011;5369;49.586;8.646;2023-03-14T12:19:43;1.70;;;1.10;;
10641;SDS011;5369;49.586;8.646;2023-03-14T12:24:49;1.20;;;0.93;;
10641;SDS011;5369;49.586;8.646;2023-03-14T12:27:38;1.17;;;1.00;;
10641;SDS011;5369;49.586;8.646;2023-03-14T12:30:02;0.70;;;0.60;;
10641;SDS011;5369;49.586;8.646;2023-03-14T12:32:36;2.73;;;0.50;;
10641;SDS011;5369;49.586;8.646;2023-03-14T12:35:07;0.40;;;0.40;;
10641;SDS011;5369;49.586;8.646;2023-03-14T12:37:35;0.50;;;0.50;;
10641;SDS011;5369;49.586;8.646;2023-03-14T12:40:13;2.13;;;0.40;;
10641;SDS011;5369;49.586;8.646;2023-03-14T12:50:11;0.90;;;0.47;;
10641;SDS011;5369;49.586;8.646;2023-03-14T12:52:59;0.60;;;0.50;;
10641;SDS011;5369;49.586;8.646;2023-03-14T12:55:36;0.50;;;0.50;;
10641;SDS011;5369;49.586;8.646;2023-03-14T12:58:08;0.60;;;0.60;;
10641;SDS011;5369;49.586;8.646;2023-03-14T13:00:39;0.70;;;0.50;;
10641;SDS011;5369;49.586;8.646;2023-03-14T13:03:42;0.60;;;0.60;;
10641;SDS011;5369;49.586;8.646;2023-03-14T13:06:00;0.60;;;0.60;;
10641;SDS011;5369;49.586;8.646;2023-03-14T13:08:36;0.47;;;0.47;;
10641;SDS011;5369;49.586;8.646;2023-03-14T13:11:04;0.63;;;0.63;;
10641;SDS011;5369;49.586;8.646;2023-03-14T13:13:31;0.60;;;0.60;;
10641;SDS011;5369;49.586;8.646;2023-03-14T13:16:00;0.80;;;0.80;;
10641;SDS011;5369;49.586;8.646;2023-03-14T13:21:02;1.37;;;0.73;;
10641;SDS011;5369;49.586;8.646;2023-03-14T13:23:33;0.57;;;0.57;;
10641;SDS011;5369;49.586;8.646;2023-03-14T13:26:00;0.73;;;0.60;;
10641;SDS011;5369;49.586;8.646;2023-03-14T13:28:27;1.20;;;0.70;;
10641;SDS011;5369;49.586;8.646;2023-03-14T13:30:55;1.33;;;0.70;;
10641;SDS011;5369;49.586;8.646;2023-03-14T13:33:22;1.00;;;0.83;;
10641;SDS011;5369;49.586;8.646;2023-03-14T13:35:59;1.27;;;1.03;;
10641;SDS011;5369;49.586;8.646;2023-03-14T13:38:26;0.90;;;0.90;;
10641;SDS011;5369;49.586;8.646;2023-03-14T13:40:54;0.90;;;0.90;;
10641;SDS011;5369;49.586;8.646;2023-03-14T13:43:30;1.00;;;0.90;;
10641;SDS011;5369;49.586;8.646;2023-03-14T13:46:02;1.00;;;0.90;;
10641;SDS011;5369;49.586;8.646;2023-03-14T13:48:29;2.13;;;1.00;;
10641;SDS011;5369;49.586;8.646;2023-03-14T13:50:58;1.30;;;1.00;;
10641;SDS011;5369;49.586;8.646;2023-03-14T13:53:25;2.50;;;1.20;;
10641;SDS011;5369;49.586;8.646;2023-03-14T13:55:51;1.40;;;1.10;;
10641;SDS011;5369;49.586;8.646;2023-03-14T13:58:21;1.47;;;1.17;;
10641;SDS011;5369;49.586;8.646;2023-03-14T14:03:30;1.70;;;1.00;;
10641;SDS011;5369;49.586;8.646;2023-03-14T14:05:57;1.27;;;0.93;;
10641;SDS011;5369;49.586;8.646;2023-03-14T14:08:24;1.57;;;1.00;;
10641;SDS011;5369;49.586;8.646;2023-03-14T14:10:51;1.73;;;0.97;;
10641;SDS011;5369;49.586;8.646;2023-03-14T14:13:19;1.60;;;0.90;;
10641;SDS011;5369;49.586;8.646;2023-03-14T14:15:48;2.37;;;1.00;;
10641;SDS011;5369;49.586;8.646;2023-03-14T14:18:16;2.50;;;1.00;;
10641;SDS011;5369;49.586;8.646;2023-03-14T14:20:44;1.50;;;0.93;;
10641;SDS011;5369;49.586;8.646;2023-03-14T14:23:21;1.30;;;0.90;;
10641;SDS011;5369;49.586;8.646;2023-03-14T14:25:51;1.27;;;0.90;;
10641;SDS011;5369;49.586;8.646;2023-03-14T14:36:21;4.67;;;1.40;;
10641;SDS011;5369;49.586;8.646;2023-03-14T14:39:02;0.80;;;0.80;;
10641;SDS011;5369;49.586;8.646;2023-03-14T14:41:31;1.33;;;0.90;;
10641;SDS011;5369;49.586;8.646;2023-03-14T14:43:58;1.93;;;0.97;;
10641;SDS011;5369;49.586;8.646;2023-03-14T14:46:26;2.37;;;0.90;;
10641;SDS011;5369;49.586;8.646;2023-03-14T14:48:55;1.93;;;0.90;;
10641;SDS011;5369;49.586;8.646;2023-03-14T14:51:22;3.17;;;0.90;;
10641;SDS011;5369;49.586;8.646;2023-03-14T14:53:49;1.00;;;0.80;;
10641;SDS011;5369;49.586;8.646;2023-03-14T14:56:16;1.77;;;0.80;;
10641;SDS011;5369;49.586;8.646;2023-03-14T14:58:46;1.40;;;0.80;;
10641;SDS011;5369;49.586;8.646;2023-03-14T15:01:16;0.73;;;0.70;;
10641;SDS011;5369;49.586;8.646;2023-03-14T15:03:43;1.90;;;0.90;;
10641;SDS011;5369;49.586;8.646;2023-03-14T15:06:11;1.10;;;0.80;;
10641;SDS011;5369;49.586;8.646;2023-03-14T15:08:38;1.17;;;0.90;;
10641;SDS011;5369;49.586;8.646;2023-03-14T15:11:05;2.30;;;0.90;;
10641;SDS011;5369;49.586;8.646;2023-03-14T15:13:31;1.30;;;0.90;;
10641;SDS011;5369;49.586;8.646;2023-03-14T15:15:57;1.30;;;0.80;;
10641;SDS011;5369;49.586;8.646;2023-03-14T15:18:24;1.73;;;0.80;;
10641;SDS011;5369;49.586;8.646;2023-03-14T15:20:50;2.30;;;0.90;;
10641;SDS011;5369;49.586;8.646;2023-03-14T15:23:18;1.70;;;0.80;;
10641;SDS011;5369;49.586;8.646;2023-03-14T15:25:45;1.03;;;0.70;;
10641;SDS011;5369;49.586;8.646;2023-03-14T15:28:16;1.10;;;0.87;;
10641;SDS011;5369;49.586;8.646;2023-03-14T15:30:45;2.57;;;0.90;;
10641;SDS011;5369;49.586;8.646;2023-03-14T15:33:11;1.33;;;0.67;;
10641;SDS011;5369;49.586;8.646;2023-03-14T15:35:37;1.83;;;0.83;;
10641;SDS011;5369;49.586;8.646;2023-03-14T15:38:04;0.93;;;0.77;;
10641;SDS011;5369;49.586;8.646;2023-03-14T15:40:30;1.87;;;1.00;;
10641;SDS011;5369;49.586;8.646;2023-03-14T15:42:57;2.03;;;1.03;;
10641;SDS011;5369;49.586;8.646;2023-03-14T15:45:23;2.10;;;0.90;;
10641;SDS011;5369;49.586;8.646;2023-03-14T15:47:49;1.47;;;0.70;;
10641;SDS011;5369;49.586;8.646;2023-03-14T15:50:15;1.60;;;0.60;;
10641;SDS011;5369;49.586;8.646;2023-03-14T15:52:41;1.63;;;0.80;;
10641;SDS011;5369;49.586;8.646;2023-03-14T15:55:08;1.90;;;0.80;;
10641;SDS011;5369;49.586;8.646;2023-03-14T15:57:34;0.77;;;0.70;;
10641;SDS011;5369;49.586;8.646;2023-03-14T16:00:00;1.17;;;0.87;;
10641;SDS011;5369;49.586;8.646;2023-03-14T16:02:26;1.70;;;0.90;;